Time;durP1;ratioP1;P1;durP2;ratioP2;P2;SDS_P1;SDS_P2;PMS_P1;PMS_P2;Temp;Humidity;BMP_temperature;BMP_pressure;BME280_temperature;BME280_humidity;BME280_pressure;Samples;Min_cycle;Max_cycle;Signal;HPM_P1;HPM_P2
2021/03/12 00:02:19;;;;;;;;;21.50;20.00;;;;;-6.80;48.87;102434.13;4861084;29;8901;-73
2021/03/12 00:05:16;;;;;;;;;19.75;19.75;;;;;-6.62;48.64;102433.88;4878065;29;8907;-73
2021/03/12 00:08:12;;;;;;;;;15.75;15.75;;;;;-6.74;49.32;102430.75;4865700;29;8892;-73
2021/03/12 00:10:49;;;;;;;;;20.25;19.00;;;;;-6.98;49.57;102421.91;4879562;29;8864;-73
2021/03/12 00:13:31;;;;;;;;;14.00;13.25;;;;;-6.90;49.67;102420.06;4879246;29;8884;-73
2021/03/12 00:16:26;;;;;;;;;23.25;21.75;;;;;-7.02;49.89;102414.19;4878637;29;8871;-73
2021/03/12 00:19:22;;;;;;;;;21.00;16.00;;;;;-7.21;50.32;102411.88;4878699;29;8915;-73
2021/03/12 00:21:49;;;;;;;;;15.00;15.00;;;;;-7.29;50.16;102402.00;4862596;29;8884;-73
2021/03/12 00:24:45;;;;;;;;;17.50;17.50;;;;;-7.07;50.30;102402.28;4871279;29;8894;-72
2021/03/12 00:27:41;;;;;;;;;37.00;36.75;;;;;-7.26;50.63;102403.50;4859392;29;8863;-73
2021/03/12 00:30:39;;;;;;;;;27.75;23.50;;;;;-7.16;50.38;102411.38;4847075;29;8875;-72
2021/03/12 00:33:34;;;;;;;;;31.50;26.50;;;;;-6.97;50.44;102407.47;4859394;29;8863;-73
2021/03/12 00:36:10;;;;;;;;;46.75;43.75;;;;;-7.08;50.55;102406.81;4845251;29;9000;-73
2021/03/12 00:38:38;;;;;;;;;38.75;30.50;;;;;-7.22;50.96;102394.06;4843777;29;8946;-73
2021/03/12 00:41:19;;;;;;;;;38.25;36.50;;;;;-7.29;50.95;102393.09;4849671;29;8990;-72
2021/03/12 00:43:50;;;;;;;;;27.50;22.25;;;;;-7.32;50.46;102401.50;4847149;29;8987;-73
2021/03/12 00:46:27;;;;;;;;;23.00;20.25;;;;;-7.34;50.92;102395.47;4863963;29;8867;-73
2021/03/12 00:49:14;;;;;;;;;19.00;19.00;;;;;-7.30;51.24;102394.09;4878289;29;8884;-73
2021/03/12 00:51:42;;;;;;;;;36.00;29.00;;;;;-7.05;50.55;102390.34;4878921;29;9015;-72
2021/03/12 00:54:38;;;;;;;;;18.00;17.25;;;;;-7.04;49.92;102388.50;4869804;29;8897;-74
2021/03/12 00:57:34;;;;;;;;;26.00;21.00;;;;;-7.14;50.78;102387.84;4881358;29;8898;-73
2021/03/12 01:00:31;;;;;;;;;19.00;17.75;;;;;-7.43;50.91;102385.75;4860432;29;8952;-72
2021/03/12 01:03:27;;;;;;;;;20.25;15.75;;;;;-7.56;51.17;102383.56;4862781;29;8943;-72
2021/03/12 01:05:54;;;;;;;;;15.00;12.50;;;;;-7.61;51.57;102373.31;4863785;29;8878;-73
2021/03/12 01:08:44;;;;;;;;;26.00;26.00;;;;;-7.44;51.22;102374.13;4863768;29;8875;-73
2021/03/12 01:11:39;;;;;;;;;26.00;25.50;;;;;-7.38;51.25;102383.38;4850364;29;8858;-73
2021/03/12 01:14:15;;;;;;;;;23.75;22.75;;;;;-7.56;51.62;102370.97;4863768;29;9063;-72
2021/03/12 01:16:42;;;;;;;;;20.00;18.50;;;;;-7.61;51.92;102367.94;4847459;29;8977;-73
2021/03/12 01:19:38;;;;;;;;;18.00;18.00;;;;;-7.48;51.59;102375.50;4850513;29;8897;-73
2021/03/12 01:22:33;;;;;;;;;26.25;26.25;;;;;-7.52;51.85;102366.06;4879352;29;8860;-73
2021/03/12 01:25:37;;;;;;;;;22.00;20.50;;;;;-7.41;51.81;102370.28;4881284;29;8892;-73
2021/03/12 01:28:33;;;;;;;;;13.25;11.50;;;;;-7.54;51.83;102368.09;4879518;29;9609;-73
2021/03/12 01:31:28;;;;;;;;;21.00;21.00;;;;;-7.62;52.25;102360.91;4868863;29;8882;-74
2021/03/12 01:34:24;;;;;;;;;30.25;23.50;;;;;-7.43;51.82;102358.88;4880990;29;8864;-73
2021/03/12 01:37:19;;;;;;;;;18.50;17.50;;;;;-7.76;51.93;102356.22;4880922;29;8884;-74
2021/03/12 01:40:18;;;;;;;;;16.50;16.50;;;;;-7.42;51.22;102350.63;4880846;29;8864;-72
2021/03/12 01:43:16;;;;;;;;;18.25;17.75;;;;;-7.49;51.62;102349.63;4880946;29;8899;-72
2021/03/12 01:45:50;;;;;;;;;13.75;12.75;;;;;-7.87;52.55;102353.88;4865538;29;8907;-72
2021/03/12 01:48:21;;;;;;;;;16.50;14.00;;;;;-7.63;52.18;102348.47;4868919;29;8874;-73
2021/03/12 01:50:58;;;;;;;;;20.50;15.25;;;;;-7.68;52.61;102352.69;4847199;29;8875;-73
2021/03/12 01:53:27;;;;;;;;;6.75;6.75;;;;;-7.57;51.98;102353.19;4863171;29;9596;-73
2021/03/12 01:55:54;;;;;;;;;27.25;24.75;;;;;-7.78;52.85;102352.84;4863018;29;8901;-74
2021/03/12 01:58:22;;;;;;;;;19.50;19.50;;;;;-7.66;52.41;102356.06;4862810;29;8878;-73
2021/03/12 02:00:50;;;;;;;;;17.00;15.50;;;;;-7.47;52.00;102355.66;4846916;29;9663;-73
2021/03/12 02:03:34;;;;;;;;;15.50;15.00;;;;;-7.42;51.48;102355.16;4862279;29;8890;-73
2021/03/12 02:06:17;;;;;;;;;23.50;18.50;;;;;-7.39;51.57;102358.34;4861848;29;8886;-73
2021/03/12 02:08:45;;;;;;;;;11.50;11.50;;;;;-7.41;51.74;102370.28;4862891;29;8985;-73
2021/03/12 02:11:50;;;;;;;;;9.25;9.25;;;;;-7.47;51.58;102363.72;4849610;29;8890;-73
2021/03/12 02:14:50;;;;;;;;;14.00;13.50;;;;;-7.51;52.09;102366.91;4861519;29;8885;-72
2021/03/12 02:17:57;;;;;;;;;17.00;17.00;;;;;-7.64;52.03;102370.97;4870348;29;8883;-73
2021/03/12 02:20:53;;;;;;;;;12.00;9.75;;;;;-7.59;52.16;102382.06;4880989;29;8906;-71
2021/03/12 02:23:46;;;;;;;;;15.00;14.50;;;;;-7.53;51.86;102388.59;4881225;29;8942;-71
2021/03/12 02:26:41;;;;;;;;;12.25;12.25;;;;;-7.66;52.41;102386.44;4844018;29;9598;-72
2021/03/12 02:29:23;;;;;;;;;11.00;11.00;;;;;-7.59;52.05;102376.69;4881067;29;9618;-72
2021/03/12 02:31:54;;;;;;;;;14.00;14.00;;;;;-7.45;51.89;102390.44;4881255;29;8875;-72
2021/03/12 02:34:30;;;;;;;;;12.50;12.50;;;;;-7.43;52.15;102393.81;4881032;29;8895;-73
2021/03/12 02:37:00;;;;;;;;;21.00;16.00;;;;;-7.60;52.06;102388.44;4863609;29;8886;-73
2021/03/12 02:39:35;;;;;;;;;23.75;21.50;;;;;-7.65;52.63;102389.97;4862276;29;8949;-73
2021/03/12 02:42:04;;;;;;;;;14.50;14.50;;;;;-7.54;52.59;102391.47;4862278;29;8901;-73
2021/03/12 02:44:41;;;;;;;;;14.25;14.25;;;;;-7.62;52.11;102393.13;4862350;29;8882;-73
2021/03/12 02:47:37;;;;;;;;;13.25;11.25;;;;;-7.58;52.62;102388.28;4867737;29;8891;-73
2021/03/12 02:50:20;;;;;;;;;10.25;10.25;;;;;-7.64;52.59;102384.41;4879581;29;8901;-73
2021/03/12 02:52:53;;;;;;;;;12.25;12.25;;;;;-7.82;52.82;102381.09;4880391;29;8872;-72
2021/03/12 02:55:49;;;;;;;;;12.75;12.75;;;;;-7.72;52.64;102383.59;4879619;29;8886;-72
2021/03/12 02:58:46;;;;;;;;;15.50;14.50;;;;;-7.96;52.79;102382.59;4879635;29;8860;-72
2021/03/12 03:01:14;;;;;;;;;13.50;13.50;;;;;-8.06;53.46;102391.81;4880683;29;8872;-72
2021/03/12 03:03:42;;;;;;;;;13.25;12.50;;;;;-8.01;53.25;102370.66;4867419;29;8949;-74
2021/03/12 03:06:20;;;;;;;;;12.75;12.00;;;;;-8.05;53.69;102370.19;4862135;29;8878;-72
2021/03/12 03:08:49;;;;;;;;;12.75;12.75;;;;;-7.87;53.16;102378.88;4861705;29;9659;-73
2021/03/12 03:11:25;;;;;;;;;20.25;18.75;;;;;-7.78;52.61;102385.09;4861802;29;8977;-72
2021/03/12 03:13:58;;;;;;;;;15.25;14.75;;;;;-7.86;53.08;102383.25;4861759;29;8962;-72
2021/03/12 03:16:53;;;;;;;;;12.25;10.50;;;;;-7.80;53.04;102380.91;4861126;29;8874;-72
2021/03/12 03:19:40;;;;;;;;;16.25;13.50;;;;;-7.89;53.45;102388.97;4880219;29;8876;-72
2021/03/12 03:22:37;;;;;;;;;10.50;10.50;;;;;-7.73;53.17;102389.97;4879785;29;8880;-72
2021/03/12 03:25:48;;;;;;;;;12.50;12.50;;;;;-7.86;53.09;102380.56;4878955;29;8872;-72
2021/03/12 03:28:43;;;;;;;;;15.00;15.00;;;;;-8.02;53.18;102377.88;4879120;29;8947;-72
2021/03/12 03:31:42;;;;;;;;;14.00;14.00;;;;;-8.16;53.06;102374.00;4879188;29;8966;-73
2021/03/12 03:34:13;;;;;;;;;12.75;12.75;;;;;-8.06;53.47;102379.22;4880362;29;8902;-73
2021/03/12 03:37:09;;;;;;;;;15.50;13.00;;;;;-7.92;53.14;102380.41;4878850;29;8879;-73
2021/03/12 03:39:39;;;;;;;;;15.25;14.25;;;;;-8.20;53.28;102369.16;4880199;29;8891;-73
2021/03/12 03:42:09;;;;;;;;;12.50;12.50;;;;;-8.24;53.88;102378.53;4878426;29;8879;-73
2021/03/12 03:44:40;;;;;;;;;14.50;14.50;;;;;-8.19;53.65;102382.41;4879831;29;8880;-74
2021/03/12 03:47:10;;;;;;;;;18.50;18.00;;;;;-8.32;54.14;102387.41;4876746;29;8962;-72
2021/03/12 03:49:43;;;;;;;;;14.50;14.50;;;;;-8.16;53.81;102384.75;4845377;29;8870;-72
2021/03/12 03:52:40;;;;;;;;;13.50;12.75;;;;;-8.37;54.00;102388.94;4859949;29;8870;-72
2021/03/12 03:55:08;;;;;;;;;13.50;12.25;;;;;-8.17;53.61;102396.50;4861149;29;8890;-73
2021/03/12 03:57:52;;;;;;;;;11.00;11.00;;;;;-8.29;53.34;102396.97;4860896;29;8913;-74
2021/03/12 04:00:50;;;;;;;;;7.00;7.00;;;;;-8.08;53.01;102393.81;4860036;29;9006;-72
2021/03/12 04:03:47;;;;;;;;;10.25;10.25;;;;;-8.09;53.34;102410.94;4861042;29;8924;-73
2021/03/12 04:06:44;;;;;;;;;14.75;14.50;;;;;-8.20;53.31;102396.00;4875954;29;8891;-73
2021/03/12 04:09:41;;;;;;;;;23.75;22.25;;;;;-8.29;53.53;102391.59;4878280;29;8867;-72
2021/03/12 04:12:11;;;;;;;;;12.50;12.50;;;;;-8.07;53.40;102398.19;4879585;29;8872;-73
2021/03/12 04:14:44;;;;;;;;;46.00;43.75;;;;;-8.09;52.97;102392.13;4878468;29;8880;-72
2021/03/12 04:17:36;;;;;;;;;15.00;15.00;;;;;-8.57;54.01;102396.44;4872747;29;8892;-72
2021/03/12 04:20:08;;;;;;;;;15.00;13.00;;;;;-8.54;54.27;102394.25;4878149;29;9079;-74
2021/03/12 04:22:44;;;;;;;;;11.00;10.50;;;;;-8.49;53.72;102396.47;4879141;29;8875;-73
2021/03/12 04:25:13;;;;;;;;;12.50;12.50;;;;;-8.28;53.40;102383.41;4879244;29;8891;-74
2021/03/12 04:27:49;;;;;;;;;11.00;10.00;;;;;-8.57;54.26;102381.19;4878489;29;8943;-73
2021/03/12 04:30:45;;;;;;;;;18.50;18.50;;;;;-8.33;53.85;102383.06;4877468;29;8871;-73
2021/03/12 04:33:16;;;;;;;;;16.00;16.00;;;;;-8.40;53.86;102400.84;4879273;29;8947;-73
2021/03/12 04:36:02;;;;;;;;;18.00;16.50;;;;;-8.53;54.47;102404.00;4863604;29;8879;-73
2021/03/12 04:38:59;;;;;;;;;16.25;16.25;;;;;-8.31;53.79;102415.09;4857467;29;8852;-73
2021/03/12 04:41:54;;;;;;;;;22.50;18.50;;;;;-8.25;53.88;102403.69;4877864;29;8891;-73
2021/03/12 04:44:50;;;;;;;;;12.00;12.00;;;;;-8.12;53.08;102409.44;4877864;29;8899;-74
2021/03/12 04:47:48;;;;;;;;;18.00;18.00;;;;;-8.11;52.85;102397.69;4864761;29;8872;-73
2021/03/12 04:50:19;;;;;;;;;15.25;14.50;;;;;-7.88;52.83;102406.75;4879255;29;8875;-73
2021/03/12 04:52:47;;;;;;;;;25.00;22.50;;;;;-8.21;53.17;102399.66;4878924;29;8872;-74
2021/03/12 04:55:44;;;;;;;;;17.50;14.75;;;;;-8.05;53.07;102404.22;4877836;29;8888;-73
2021/03/12 04:58:42;;;;;;;;;13.50;13.00;;;;;-8.35;53.30;102406.56;4877597;29;8860;-74
2021/03/12 05:01:42;;;;;;;;;8.75;8.75;;;;;-7.97;52.73;102405.09;4862095;29;8987;-73
2021/03/12 05:04:40;;;;;;;;;13.50;13.25;;;;;-8.26;52.71;102402.88;4859435;29;8882;-72
2021/03/12 05:07:37;;;;;;;;;12.75;12.75;;;;;-7.95;52.52;102403.06;4859080;29;8967;-73
2021/03/12 05:10:33;;;;;;;;;13.25;12.25;;;;;-7.71;52.49;102399.53;4846906;29;8890;-73
2021/03/12 05:13:29;;;;;;;;;15.00;12.25;;;;;-7.82;52.57;102386.47;4846923;29;8886;-73
2021/03/12 05:16:24;;;;;;;;;19.50;18.75;;;;;-7.67;52.66;102382.06;4859413;29;8875;-74
2021/03/12 05:18:56;;;;;;;;;10.25;10.25;;;;;-7.38;51.55;102378.00;4877645;29;8967;-74
2021/03/12 05:21:39;;;;;;;;;15.00;15.00;;;;;-7.30;52.05;102372.59;4877626;29;8918;-73
2021/03/12 05:24:07;;;;;;;;;6.25;6.00;;;;;-7.33;51.71;102367.56;4851306;29;8855;-73
2021/03/12 05:26:53;;;;;;;;;20.75;19.50;;;;;-7.17;51.91;102372.91;4859803;29;9037;-74
2021/03/12 05:29:21;;;;;;;;;20.75;20.00;;;;;-7.06;51.25;102364.44;4875284;29;8868;-73
2021/03/12 05:32:03;;;;;;;;;16.50;16.50;;;;;-6.76;51.01;102361.97;4874731;29;8884;-74
2021/03/12 05:34:59;;;;;;;;;19.25;17.50;;;;;-6.79;50.58;102368.53;4862974;29;8888;-74
2021/03/12 05:37:41;;;;;;;;;20.50;19.25;;;;;-6.58;50.46;102359.03;4874224;29;8975;-75
2021/03/12 05:40:18;;;;;;;;;16.50;15.25;;;;;-6.95;51.50;102386.63;4875996;29;8884;-74
2021/03/12 05:43:03;;;;;;;;;18.75;18.75;;;;;-7.04;51.94;102404.63;4880320;29;8888;-74
2021/03/12 05:46:00;;;;;;;;;23.75;16.25;;;;;-6.68;50.77;102402.28;4863716;29;8865;-74
2021/03/12 05:48:56;;;;;;;;;16.00;15.00;;;;;-6.54;50.96;102419.56;4880093;29;8867;-74
2021/03/12 05:51:25;;;;;;;;;15.50;15.25;;;;;-6.42;50.51;102428.09;4875350;29;8979;-73
2021/03/12 05:54:20;;;;;;;;;15.50;14.00;;;;;-6.34;50.47;102438.81;4879543;29;8895;-74
2021/03/12 05:57:16;;;;;;;;;28.00;25.00;;;;;-6.13;49.79;102452.50;4873001;29;8893;-74
2021/03/12 06:00:13;;;;;;;;;17.00;17.00;;;;;-6.00;49.76;102452.75;4865805;29;8952;-73
2021/03/12 06:03:09;;;;;;;;;15.00;15.00;;;;;-5.93;49.89;102451.00;4865471;29;8889;-74
2021/03/12 06:05:36;;;;;;;;;17.50;15.00;;;;;-5.75;49.87;102447.13;4860376;29;8966;-74
2021/03/12 06:08:05;;;;;;;;;27.00;20.00;;;;;-5.57;48.98;102442.28;4878318;29;8903;-73
2021/03/12 06:10:58;;;;;;;;;22.25;20.00;;;;;-5.49;49.51;102412.56;4866076;29;8885;-75
2021/03/12 06:13:27;;;;;;;;;16.50;15.50;;;;;-5.36;49.04;102418.19;4862697;29;8897;-73
2021/03/12 06:16:21;;;;;;;;;15.50;15.50;;;;;-5.39;48.80;102410.44;4862424;29;9652;-73
2021/03/12 06:19:12;;;;;;;;;10.50;10.50;;;;;-5.38;49.17;102420.19;4852182;29;9703;-73
2021/03/12 06:22:07;;;;;;;;;20.75;20.75;;;;;-5.30;49.27;102408.50;4869273;29;8884;-74
2021/03/12 06:24:49;;;;;;;;;27.75;23.50;;;;;-4.99;48.28;102402.09;4868560;29;8951;-73
2021/03/12 06:27:29;;;;;;;;;24.50;21.00;;;;;-5.01;48.91;102393.34;4862304;29;8875;-74
2021/03/12 06:30:32;;;;;;;;;16.50;15.75;;;;;-4.81;48.22;102399.88;4870033;29;9714;-74
2021/03/12 06:33:33;;;;;;;;;21.00;19.75;;;;;-4.95;48.92;102411.50;4870543;29;8851;-75
2021/03/12 06:36:29;;;;;;;;;23.75;23.75;;;;;-4.48;47.94;102408.38;4870978;29;8947;-73
2021/03/12 06:39:36;;;;;;;;;18.50;18.50;;;;;-4.21;47.89;102414.94;4870363;29;8965;-74
2021/03/12 06:42:10;;;;;;;;;28.25;24.25;;;;;-3.98;47.77;102415.59;4868001;29;8868;-76
2021/03/12 06:45:01;;;;;;;;;20.00;18.00;;;;;-3.75;46.95;102409.19;4871946;29;8868;-72
2021/03/12 06:47:29;;;;;;;;;24.00;23.75;;;;;-3.67;46.96;102409.03;4870648;29;9681;-72
2021/03/12 06:50:43;;;;;;;;;15.50;15.25;;;;;-3.55;47.05;102393.09;4869371;29;8886;-73
2021/03/12 06:53:41;;;;;;;;;17.50;15.50;;;;;-3.17;45.49;102409.81;4870631;29;8863;-72
2021/03/12 06:56:37;;;;;;;;;11.50;9.25;;;;;-3.14;45.88;102407.59;4868947;29;9661;-73
2021/03/12 06:59:08;;;;;;;;;51.25;32.25;;;;;-3.25;46.19;102399.16;4869107;29;9049;-73
2021/03/12 07:01:36;;;;;;;;;39.00;26.75;;;;;-2.90;44.98;102400.00;4870478;29;8955;-74
2021/03/12 07:04:31;;;;;;;;;21.75;17.00;;;;;-2.96;45.09;102390.81;4870332;29;8874;-73
2021/03/12 07:07:00;;;;;;;;;17.00;17.00;;;;;-2.73;44.92;102404.06;4869846;29;9047;-73
2021/03/12 07:09:28;;;;;;;;;12.25;11.00;;;;;-2.71;44.14;102411.97;4853769;29;8870;-73
2021/03/12 07:12:05;;;;;;;;;11.00;10.00;;;;;-2.67;43.29;102395.13;4869534;29;8874;-73
2021/03/12 07:14:33;;;;;;;;;10.00;8.75;;;;;-2.55;43.71;102392.66;4870670;29;8884;-74
2021/03/12 07:17:29;;;;;;;;;13.50;13.50;;;;;-2.30;43.06;102391.13;4869218;29;8867;-74
2021/03/12 07:19:57;;;;;;;;;13.00;10.75;;;;;-2.57;44.25;102395.59;4872370;29;8856;-73
2021/03/12 07:22:32;;;;;;;;;15.50;15.50;;;;;-2.29;43.35;102386.53;4870681;29;8859;-73
2021/03/12 07:25:23;;;;;;;;;13.00;13.00;;;;;-2.19;42.79;102405.94;4858735;29;8937;-74
2021/03/12 07:28:22;;;;;;;;;13.00;13.00;;;;;-2.17;42.67;102392.16;4873511;29;8958;-74
2021/03/12 07:31:02;;;;;;;;;9.67;9.67;;;;;-1.82;41.56;102399.13;4872227;29;8878;-74
2021/03/12 07:33:51;;;;;;;;;13.00;13.00;;;;;-1.76;40.69;102397.47;4869591;29;8864;-75
2021/03/12 07:36:51;;;;;;;;;13.67;13.67;;;;;-1.66;39.93;102402.50;4870802;29;8855;-74
2021/03/12 07:39:24;;;;;;;;;12.67;12.67;;;;;-1.90;40.82;102412.06;4852945;29;8866;-73
2021/03/12 07:42:21;;;;;;;;;12.00;9.00;;;;;-1.61;41.04;102427.09;4869852;29;8874;-73
2021/03/12 07:45:03;;;;;;;;;13.00;12.00;;;;;-1.40;40.37;102405.19;4870054;29;8894;-73
2021/03/12 07:47:46;;;;;;;;;18.00;18.00;;;;;-1.70;41.27;102397.47;4873377;29;8884;-73
2021/03/12 07:50:29;;;;;;;;;16.00;15.00;;;;;-1.34;39.45;102390.78;4872826;29;8876;-73
2021/03/12 07:52:56;;;;;;;;;14.33;14.33;;;;;-1.22;39.74;102396.41;4869773;29;9054;-73
2021/03/12 07:55:35;;;;;;;;;14.33;14.33;;;;;-0.96;40.75;102395.53;4868887;29;8971;-73
2021/03/12 07:58:08;;;;;;;;;15.00;11.33;;;;;-0.87;40.11;102391.53;4870544;29;8876;-73
2021/03/12 08:00:51;;;;;;;;;10.67;10.67;;;;;-0.62;38.40;102380.78;4869083;29;8859;-73
2021/03/12 08:03:34;;;;;;;;;16.00;16.00;;;;;-0.41;39.15;102368.78;4871371;29;8856;-74
2021/03/12 08:06:31;;;;;;;;;7.00;7.00;;;;;-0.57;36.08;102365.50;4869383;29;8876;-74
2021/03/12 08:09:31;;;;;;;;;9.00;9.00;;;;;-0.47;35.84;102365.03;4867338;29;8971;-74
2021/03/12 08:12:28;;;;;;;;;19.00;19.00;;;;;-0.55;36.95;102368.00;4870763;29;8961;-74
2021/03/12 08:15:29;;;;;;;;;10.00;9.67;;;;;-0.41;36.81;102358.72;4857056;29;8908;-74
2021/03/12 08:18:26;;;;;;;;;13.33;13.33;;;;;-0.28;36.32;102366.81;4869347;29;8948;-73
2021/03/12 08:21:30;;;;;;;;;20.33;17.33;;;;;-0.27;36.22;102364.94;4869820;29;8880;-74
2021/03/12 08:24:52;;;;;;;;;13.00;13.00;;;;;-0.10;36.12;102366.09;4872456;29;8888;-74
2021/03/12 08:27:43;;;;;;;;;9.33;9.33;;;;;-0.10;34.92;102368.81;4869068;29;8866;-74
2021/03/12 08:30:38;;;;;;;;;7.67;7.67;;;;;0.03;35.95;102381.50;4870664;29;8859;-75
2021/03/12 08:33:35;;;;;;;;;9.00;9.00;;;;;0.07;35.60;102371.00;4861038;29;8875;-74
2021/03/12 08:36:05;;;;;;;;;11.33;10.00;;;;;-0.07;35.73;102362.13;4870574;29;8891;-75
2021/03/12 08:38:32;;;;;;;;;13.67;12.33;;;;;0.31;35.64;102353.03;4870454;29;8962;-75
2021/03/12 08:41:15;;;;;;;;;9.67;9.67;;;;;0.37;35.58;102350.25;4869976;29;8894;-75
2021/03/12 08:43:52;;;;;;;;;10.00;10.00;;;;;0.34;35.64;102345.25;4855887;29;8866;-74
2021/03/12 08:46:49;;;;;;;;;14.67;14.67;;;;;0.49;35.75;102358.53;4869229;29;8942;-74
2021/03/12 08:49:45;;;;;;;;;11.33;11.33;;;;;-0.05;37.20;102349.13;4856860;29;8860;-74
2021/03/12 08:52:18;;;;;;;;;11.33;10.00;;;;;0.59;36.45;102345.25;4867468;29;8921;-74
2021/03/12 08:54:54;;;;;;;;;15.00;12.67;;;;;0.95;36.19;102338.19;4869328;29;8862;-74
2021/03/12 08:57:22;;;;;;;;;17.33;17.33;;;;;0.77;36.16;102336.28;4871351;29;8864;-73
2021/03/12 09:00:09;;;;;;;;;12.00;12.00;;;;;1.16;36.00;102334.19;4868868;29;8933;-73
2021/03/12 09:02:36;;;;;;;;;11.33;10.00;;;;;0.75;37.00;102328.31;4854614;29;8864;-74
2021/03/12 09:05:31;;;;;;;;;16.33;16.00;;;;;1.07;36.51;102315.41;4868872;29;8887;-75
2021/03/12 09:08:26;;;;;;;;;13.33;13.00;;;;;1.01;37.06;102316.31;4868113;29;8870;-75
2021/03/12 09:10:54;;;;;;;;;13.00;13.00;;;;;0.95;37.14;102322.66;4863009;29;8918;-75
2021/03/12 09:13:24;;;;;;;;;10.00;10.00;;;;;1.03;36.98;102305.19;4869761;29;9137;-74
2021/03/12 09:15:51;;;;;;;;;5.67;5.67;;;;;0.95;37.05;102316.38;4856976;29;8884;-75
2021/03/12 09:18:38;;;;;;;;;10.67;10.67;;;;;1.35;37.09;102325.72;4859324;29;8865;-75
2021/03/12 09:21:19;;;;;;;;;10.00;10.00;;;;;1.53;37.27;102329.47;4873010;29;8932;-74
2021/03/12 09:23:50;;;;;;;;;12.00;12.00;;;;;1.73;37.79;102331.94;4871243;29;8886;-75
2021/03/12 09:26:22;;;;;;;;;11.00;11.00;;;;;1.72;37.52;102333.84;4871082;29;8882;-74
2021/03/12 09:28:53;;;;;;;;;19.67;18.33;;;;;1.94;37.34;102325.97;4857276;29;8879;-74
2021/03/12 09:31:50;;;;;;;;;11.67;11.67;;;;;1.75;38.53;102319.72;4870947;29;8897;-74
2021/03/12 09:34:19;;;;;;;;;16.00;16.00;;;;;1.83;38.34;102304.91;4871033;29;8871;-74
2021/03/12 09:36:50;;;;;;;;;17.00;17.00;;;;;1.66;38.34;102293.84;4871419;29;8864;-74
2021/03/12 09:39:26;;;;;;;;;13.00;13.00;;;;;2.06;38.08;102298.69;4857145;29;8883;-74
2021/03/12 09:41:59;;;;;;;;;23.33;23.33;;;;;2.05;37.91;102291.56;4870750;29;8945;-74
2021/03/12 09:44:32;;;;;;;;;16.33;16.00;;;;;1.79;38.02;102288.19;4870662;29;8976;-75
2021/03/12 09:47:06;;;;;;;;;10.00;10.00;;;;;2.01;37.49;102285.75;4871030;29;8882;-74
2021/03/12 09:49:42;;;;;;;;;15.00;15.00;;;;;1.80;38.39;102268.03;4871266;29;9049;-74
2021/03/12 09:52:38;;;;;;;;;12.67;12.67;;;;;2.14;37.46;102269.13;4860011;29;8871;-75
2021/03/12 09:55:39;;;;;;;;;11.33;9.67;;;;;1.99;37.71;102270.66;4871802;29;8887;-75
2021/03/12 09:58:35;;;;;;;;;17.67;17.67;;;;;2.02;36.61;102262.84;4859267;29;8888;-75
2021/03/12 10:01:38;;;;;;;;;14.33;12.67;;;;;1.50;37.88;102272.69;4872511;29;8871;-74
2021/03/12 10:04:39;;;;;;;;;16.00;14.67;;;;;1.77;38.74;102268.50;4869724;29;8891;-74
2021/03/12 10:07:12;;;;;;;;;15.33;14.00;;;;;2.26;37.09;102265.59;4871797;29;8978;-73
2021/03/12 10:09:42;;;;;;;;;17.00;15.67;;;;;2.39;36.94;102274.41;4853838;29;8894;-73
2021/03/12 10:12:22;;;;;;;;;20.67;20.00;;;;;2.58;37.10;102279.72;4855019;29;8883;-74
2021/03/12 10:14:55;;;;;;;;;20.00;16.67;;;;;2.22;37.90;102267.97;4871667;29;9067;-73
2021/03/12 10:17:42;;;;;;;;;13.67;13.67;;;;;2.31;37.17;102263.00;4872052;29;11780;-74
2021/03/12 10:20:37;;;;;;;;;14.00;14.00;;;;;2.44;37.47;102246.34;4871803;29;9091;-75
2021/03/12 10:23:33;;;;;;;;;20.33;16.67;;;;;2.57;36.90;102246.13;4870935;29;11726;-74
2021/03/12 10:26:05;;;;;;;;;16.00;15.00;;;;;2.88;35.80;102225.72;4871485;29;9609;-74
2021/03/12 10:29:01;;;;;;;;;13.00;12.33;;;;;2.76;35.59;102225.78;4857092;29;8870;-74
2021/03/12 10:32:09;;;;;;;;;17.00;15.33;;;;;2.70;35.91;102213.09;4869792;29;11691;-74
2021/03/12 10:35:22;;;;;;;;;13.00;13.00;;;;;2.53;35.78;102201.25;4869555;29;11695;-75
2021/03/12 10:37:52;;;;;;;;;13.67;13.33;;;;;2.71;35.82;102200.25;4869916;29;11909;-75
2021/03/12 10:40:42;;;;;;;;;7.00;7.00;;;;;2.90;35.68;102196.25;4859102;29;12463;-74
2021/03/12 10:43:38;;;;;;;;;11.00;10.33;;;;;2.85;35.78;102187.16;4870889;29;11684;-74
2021/03/12 10:46:08;;;;;;;;;11.00;11.00;;;;;2.98;34.95;102193.13;4869774;29;11738;-74
2021/03/12 10:49:04;;;;;;;;;8.67;8.67;;;;;3.20;34.98;102184.25;4868775;29;11728;-74
2021/03/12 10:51:56;;;;;;;;;14.67;13.67;;;;;3.38;34.41;102170.38;4871237;29;11693;-74
2021/03/12 10:54:30;;;;;;;;;9.00;9.00;;;;;3.56;33.60;102175.59;4871064;29;11772;-74
2021/03/12 10:57:01;;;;;;;;;7.50;7.50;;;;;3.97;33.04;102165.31;4871391;29;11656;-74
2021/03/12 10:59:57;;;;;;;;;12.75;12.75;;;;;3.93;32.88;102155.13;4870111;29;11655;-74
2021/03/12 11:03:02;;;;;;;;;9.00;9.00;;;;;3.40;32.96;102151.81;4869405;29;11683;-74
2021/03/12 11:05:53;;;;;;;;;11.00;11.00;;;;;3.77;32.71;102154.88;4878626;29;12467;-74
2021/03/12 11:08:49;;;;;;;;;9.00;9.00;;;;;2.97;33.59;102144.19;4870263;29;11818;-74
2021/03/12 11:11:40;;;;;;;;;11.75;11.75;;;;;3.44;32.48;102133.81;4871239;29;11703;-73
2021/03/12 11:14:34;;;;;;;;;15.00;14.00;;;;;3.45;32.30;102132.75;4871340;29;11692;-74
2021/03/12 11:17:37;;;;;;;;;15.50;15.50;;;;;3.76;31.92;102122.31;4870016;29;11720;-74
2021/03/12 11:20:12;;;;;;;;;9.75;9.75;;;;;3.94;32.19;102127.50;4862106;29;11701;-74
2021/03/12 11:22:41;;;;;;;;;12.00;12.00;;;;;4.42;31.90;102125.94;4861897;29;11727;-73
2021/03/12 11:25:09;;;;;;;;;12.00;12.00;;;;;4.52;31.18;102137.03;4862987;29;11721;-75
2021/03/12 11:27:36;;;;;;;;;15.25;14.25;;;;;4.24;31.01;102129.84;4861426;29;11728;-74
2021/03/12 11:30:33;;;;;;;;;16.50;15.50;;;;;4.36;30.42;102126.97;4869344;29;11835;-74
2021/03/12 11:33:03;;;;;;;;;6.50;6.50;;;;;4.29;30.49;102115.38;4868971;29;11718;-74
2021/03/12 11:35:48;;;;;;;;;15.00;13.00;;;;;4.26;30.80;102113.16;4854960;29;11731;-75
2021/03/12 11:38:15;;;;;;;;;12.00;10.75;;;;;3.94;30.52;102107.50;4869672;29;11709;-74
2021/03/12 11:40:58;;;;;;;;;1.75;1.75;;;;;4.19;30.46;102099.63;4870458;29;11710;-75
2021/03/12 11:43:54;;;;;;;;;9.00;9.00;;;;;4.06;30.31;102098.09;4868999;29;11755;-75
2021/03/12 11:46:35;;;;;;;;;8.75;8.75;;;;;4.17;30.61;102083.47;4867043;29;11675;-75
2021/03/12 11:49:31;;;;;;;;;11.75;11.75;;;;;4.11;30.12;102083.66;4869067;29;11693;-74
2021/03/12 11:52:14;;;;;;;;;14.00;12.75;;;;;4.55;30.83;102067.22;4870494;29;11810;-74
2021/03/12 11:55:12;;;;;;;;;8.50;8.50;;;;;4.52;29.45;102070.44;4868776;29;11722;-73
2021/03/12 11:57:40;;;;;;;;;7.50;7.50;;;;;4.55;30.04;102061.72;4868661;29;11651;-72
2021/03/12 12:00:09;;;;;;;;;10.25;9.75;;;;;4.51;29.70;102055.91;4867376;29;11664;-73
2021/03/12 12:02:38;;;;;;;;;8.50;7.50;;;;;4.14;30.08;102053.88;4868354;29;12458;-73
2021/03/12 12:05:33;;;;;;;;;8.75;8.75;;;;;4.72;29.94;102046.84;4864445;29;11790;-73
2021/03/12 12:08:01;;;;;;;;;7.75;6.00;;;;;4.62;29.72;102029.47;4864517;29;11798;-72
2021/03/12 12:10:44;;;;;;;;;3.50;3.50;;;;;4.23;30.72;102028.75;4868745;29;11662;-74
2021/03/12 12:13:11;;;;;;;;;6.00;6.00;;;;;4.27;30.35;102016.19;4868547;29;11664;-74
2021/03/12 12:16:01;;;;;;;;;10.25;10.25;;;;;4.46;29.78;102029.31;4870286;29;11784;-72
2021/03/12 12:18:42;;;;;;;;;12.00;12.00;;;;;4.48;29.50;102015.34;4866847;29;11676;-72
2021/03/12 12:21:23;;;;;;;;;8.50;8.50;;;;;4.77;29.05;102009.63;4868807;29;11711;-72
2021/03/12 12:24:19;;;;;;;;;10.25;10.25;;;;;5.30;28.52;102001.28;4868039;29;12338;-72
2021/03/12 12:27:14;;;;;;;;;9.00;9.00;;;;;5.08;28.71;102008.78;4869418;29;11804;-73
2021/03/12 12:30:11;;;;;;;;;13.75;10.25;;;;;5.50;28.00;102005.22;4866338;29;11674;-72
2021/03/12 12:33:07;;;;;;;;;13.00;13.00;;;;;5.42;27.71;101994.75;4867263;29;12578;-72
2021/03/12 12:36:03;;;;;;;;;12.25;12.25;;;;;5.63;28.38;101980.06;4869171;29;11714;-73
2021/03/12 12:38:30;;;;;;;;;11.50;9.75;;;;;5.70;28.01;101980.66;4869225;29;11727;-72
2021/03/12 12:41:07;;;;;;;;;12.50;12.50;;;;;5.82;27.76;101980.44;4841756;29;11689;-72